Time;durP1;ratioP1;P1;durP2;ratioP2;P2;SDS_P1;SDS_P2;PMS_P1;PMS_P2;Temp;Humidity;BMP_temperature;BMP_pressure;BME280_temperature;BME280_humidity;BME280_pressure;Samples;Min_cycle;Max_cycle;Signal;HPM_P1;HPM_P2
2022/07/30 00:00:10;;;;;;;3.33;1.30;;;7.50;99.90;;;;;;5053709;28;20024;-74
2022/07/30 00:02:38;;;;;;;4.45;1.23;;;7.60;99.90;;;;;;5053589;28;20037;-75
2022/07/30 00:05:06;;;;;;;4.85;1.45;;;7.70;99.90;;;;;;5051711;28;20028;-75
2022/07/30 00:07:34;;;;;;;3.47;1.13;;;7.70;99.90;;;;;;5053133;28;20024;-74
2022/07/30 00:10:03;;;;;;;7.15;1.73;;;7.80;99.90;;;;;;5053180;28;20021;-73
2022/07/30 00:12:31;;;;;;;3.13;1.27;;;7.80;99.90;;;;;;5053776;28;20017;-74
2022/07/30 00:14:58;;;;;;;3.97;1.40;;;7.90;99.90;;;;;;5053495;28;20108;-74
2022/07/30 00:17:26;;;;;;;6.28;1.48;;;8.00;99.90;;;;;;5052329;28;20390;-77
2022/07/30 00:19:53;;;;;;;5.32;1.00;;;8.10;99.90;;;;;;5053585;28;20017;-75
2022/07/30 00:22:21;;;;;;;6.18;1.40;;;8.20;99.90;;;;;;5052909;28;20370;-75
2022/07/30 00:24:49;;;;;;;1.65;1.00;;;8.30;99.90;;;;;;5052842;28;20036;-77
2022/07/30 00:27:16;;;;;;;2.20;1.20;;;8.30;99.90;;;;;;5053385;28;20086;-77
2022/07/30 00:29:44;;;;;;;5.18;1.40;;;8.40;99.90;;;;;;5053307;28;20017;-75
2022/07/30 00:32:11;;;;;;;6.60;1.48;;;8.60;99.90;;;;;;5053368;28;20013;-74
2022/07/30 00:34:38;;;;;;;3.05;0.93;;;8.70;99.90;;;;;;5052748;28;20167;-74
2022/07/30 00:37:06;;;;;;;4.50;1.17;;;8.80;99.90;;;;;;5051356;28;20040;-77
2022/07/30 00:39:33;;;;;;;4.65;0.95;;;8.80;99.90;;;;;;5053151;28;20013;-77
2022/07/30 00:42:03;;;;;;;4.20;1.25;;;8.90;99.90;;;;;;5050531;28;20152;-74
2022/07/30 00:44:30;;;;;;;5.00;1.33;;;9.00;99.90;;;;;;5051465;28;20039;-77
2022/07/30 00:46:59;;;;;;;2.03;0.77;;;9.10;99.90;;;;;;5053031;28;20017;-75
2022/07/30 00:49:26;;;;;;;3.05;1.25;;;9.10;99.90;;;;;;5052558;28;20094;-75
2022/07/30 00:51:54;;;;;;;3.50;1.17;;;9.10;99.90;;;;;;5051552;28;20374;-78
2022/07/30 00:54:21;;;;;;;6.30;1.00;;;9.20;99.90;;;;;;5051923;28;20577;-77
2022/07/30 00:56:49;;;;;;;2.40;1.00;;;9.30;99.90;;;;;;5052880;28;20086;-77
2022/07/30 00:59:16;;;;;;;8.63;1.63;;;9.30;99.90;;;;;;5052453;28;20021;-76
2022/07/30 01:01:44;;;;;;;4.20;1.30;;;9.40;99.90;;;;;;5052431;28;20025;-76
2022/07/30 01:04:11;;;;;;;4.85;0.90;;;9.50;99.90;;;;;;5052589;28;20036;-76
2022/07/30 01:06:40;;;;;;;7.25;1.10;;;9.50;99.90;;;;;;5052656;28;20020;-77
2022/07/30 01:09:07;;;;;;;2.55;0.88;;;9.60;99.90;;;;;;5050470;28;20029;-77
2022/07/30 01:11:40;;;;;;;4.05;0.90;;;9.60;99.90;;;;;;5052346;28;20028;-74
2022/07/30 01:14:08;;;;;;;4.95;1.95;;;9.60;99.90;;;;;;5050351;28;20055;-73
2022/07/30 01:16:37;;;;;;;3.55;1.10;;;9.60;99.90;;;;;;5052449;28;20444;-74
2022/07/30 01:22:27;;;;;;;5.00;0.77;;;9.70;99.90;;;;;;5052701;28;20031;-73
2022/07/30 01:25:16;;;;;;;3.67;1.10;;;9.80;99.90;;;;;;5052409;28;20110;-77
2022/07/30 01:27:59;;;;;;;3.65;0.80;;;9.90;99.90;;;;;;5051738;28;20024;-78
2022/07/30 01:30:33;;;;;;;3.03;0.90;;;9.90;99.90;;;;;;5052251;28;20013;-75
2022/07/30 01:33:02;;;;;;;4.07;0.82;;;9.90;99.90;;;;;;5051637;28;20036;-76
2022/07/30 01:35:32;;;;;;;3.58;0.47;;;10.00;99.90;;;;;;5050707;28;20029;-76
2022/07/30 01:38:01;;;;;;;4.95;1.25;;;10.00;99.90;;;;;;5051605;28;20024;-74
2022/07/30 01:40:30;;;;;;;1.60;0.70;;;10.10;99.90;;;;;;5048317;28;20028;-75
2022/07/30 01:43:00;;;;;;;2.33;0.85;;;10.10;99.90;;;;;;5050882;28;20082;-74
2022/07/30 01:45:30;;;;;;;2.78;0.90;;;10.10;99.90;;;;;;5050571;28;20383;-73
2022/07/30 01:48:00;;;;;;;3.25;1.40;;;10.20;99.90;;;;;;5054993;28;20017;-72
2022/07/30 01:50:31;;;;;;;6.80;0.90;;;10.20;99.90;;;;;;5054369;28;20501;-78
2022/07/30 01:52:59;;;;;;;1.52;0.50;;;10.20;99.90;;;;;;5056098;28;20028;-77
2022/07/30 01:55:41;;;;;;;4.38;1.67;;;10.20;99.90;;;;;;5054079;28;20394;-77
2022/07/30 01:58:10;;;;;;;2.45;0.70;;;10.30;99.90;;;;;;5054193;28;20021;-76
2022/07/30 02:00:40;;;;;;;1.42;0.70;;;10.30;99.90;;;;;;5055886;28;20472;-76
2022/07/30 02:03:10;;;;;;;0.73;0.60;;;10.40;99.90;;;;;;5054168;28;20127;-76
2022/07/30 02:05:40;;;;;;;3.42;0.60;;;10.40;99.90;;;;;;5055801;28;20466;-77
2022/07/30 02:08:21;;;;;;;5.68;0.82;;;10.40;99.90;;;;;;5053876;28;20116;-76
2022/07/30 02:10:56;;;;;;;1.35;0.80;;;10.50;99.90;;;;;;5055619;28;20350;-75
2022/07/30 02:13:31;;;;;;;3.22;0.93;;;10.50;99.90;;;;;;5055387;28;20440;-75
2022/07/30 02:16:27;;;;;;;1.13;0.43;;;10.60;99.90;;;;;;5055219;28;20460;-73
2022/07/30 02:19:05;;;;;;;3.47;0.80;;;10.60;99.90;;;;;;5055552;28;20066;-77
2022/07/30 02:21:38;;;;;;;2.10;0.90;;;10.60;99.90;;;;;;5055503;28;20029;-81
2022/07/30 02:24:10;;;;;;;0.90;0.65;;;10.60;99.90;;;;;;5052672;28;20024;-79
2022/07/30 02:26:40;;;;;;;2.35;0.68;;;10.70;99.90;;;;;;5054629;28;20060;-78
2022/07/30 02:29:08;;;;;;;1.25;0.63;;;10.70;99.90;;;;;;5055113;28;20025;-76
2022/07/30 02:31:36;;;;;;;4.07;0.90;;;10.80;99.90;;;;;;5055680;28;20063;-77
2022/07/30 02:34:06;;;;;;;2.42;0.60;;;10.90;99.90;;;;;;5053291;28;20017;-79
2022/07/30 02:36:34;;;;;;;5.45;1.17;;;11.00;99.90;;;;;;5054481;28;20421;-74
2022/07/30 02:39:03;;;;;;;1.88;0.82;;;11.00;99.90;;;;;;5053992;28;20067;-74
2022/07/30 02:41:32;;;;;;;2.88;0.88;;;11.00;99.90;;;;;;5055390;28;20429;-78
2022/07/30 02:44:00;;;;;;;3.95;0.90;;;11.00;99.90;;;;;;5055255;28;20119;-77
2022/07/30 02:46:30;;;;;;;0.70;0.50;;;11.10;99.90;;;;;;5055455;28;20021;-77
2022/07/30 02:48:58;;;;;;;2.00;0.80;;;11.10;99.90;;;;;;5055536;28;20469;-73
2022/07/30 02:51:26;;;;;;;2.22;0.60;;;11.20;99.90;;;;;;5055010;28;20036;-77
2022/07/30 02:53:55;;;;;;;1.90;0.63;;;11.20;99.90;;;;;;5055460;28;20104;-74
2022/07/30 02:56:24;;;;;;;3.35;0.85;;;11.30;99.90;;;;;;5056070;28;20154;-78
2022/07/30 02:58:52;;;;;;;4.28;0.70;;;11.30;99.90;;;;;;5055776;28;20032;-78
2022/07/30 03:01:22;;;;;;;1.65;0.88;;;11.40;99.90;;;;;;5055509;28;20020;-78
2022/07/30 03:03:50;;;;;;;1.65;0.65;;;11.50;99.90;;;;;;5053771;28;20037;-76
2022/07/30 03:06:24;;;;;;;3.10;1.63;;;11.50;99.90;;;;;;5051969;28;20021;-76
2022/07/30 03:08:56;;;;;;;3.85;0.73;;;11.50;99.90;;;;;;5055537;28;20248;-79
2022/07/30 03:11:25;;;;;;;1.98;0.47;;;11.50;99.90;;;;;;5054150;28;20539;-76
2022/07/30 03:13:52;;;;;;;4.07;0.90;;;11.60;99.90;;;;;;5054678;28;20367;-79
2022/07/30 03:16:24;;;;;;;2.42;0.75;;;11.60;99.90;;;;;;5055501;28;20032;-78
2022/07/30 03:19:01;;;;;;;1.83;0.90;;;11.60;99.90;;;;;;5055644;28;20428;-77
2022/07/30 03:21:31;;;;;;;1.75;0.50;;;11.60;99.90;;;;;;5054718;28;20045;-74
2022/07/30 03:24:02;;;;;;;2.28;0.82;;;11.70;99.90;;;;;;5054572;28;20087;-78
2022/07/30 03:26:30;;;;;;;2.13;1.00;;;11.80;99.90;;;;;;5054935;28;20017;-79
2022/07/30 03:29:02;;;;;;;4.10;1.00;;;11.80;99.90;;;;;;5053744;28;20389;-80
2022/07/30 03:31:31;;;;;;;3.65;0.82;;;11.80;99.90;;;;;;5054226;28;20386;-79
2022/07/30 03:33:58;;;;;;;4.90;0.80;;;11.80;99.90;;;;;;5053906;28;20369;-75
2022/07/30 03:36:29;;;;;;;0.82;0.70;;;11.80;99.90;;;;;;5053922;28;20497;-80
2022/07/30 03:38:56;;;;;;;1.20;0.70;;;11.80;99.90;;;;;;5054461;28;20405;-76
2022/07/30 03:41:24;;;;;;;3.40;0.95;;;11.90;99.90;;;;;;5053503;28;20021;-77
2022/07/30 03:43:51;;;;;;;3.55;0.82;;;11.90;99.90;;;;;;5054367;28;20017;-77
2022/07/30 03:46:19;;;;;;;2.63;0.52;;;11.90;99.90;;;;;;5054643;28;20131;-76
2022/07/30 03:48:47;;;;;;;2.60;0.90;;;11.90;99.90;;;;;;5054288;28;20021;-84
2022/07/30 03:51:15;;;;;;;1.98;0.65;;;11.90;99.90;;;;;;5054102;28;20017;-75
2022/07/30 03:53:44;;;;;;;1.80;0.80;;;12.00;99.90;;;;;;5054053;28;20021;-76
2022/07/30 03:56:13;;;;;;;5.57;0.93;;;12.00;99.90;;;;;;5052923;28;20162;-78
2022/07/30 03:58:41;;;;;;;4.07;1.10;;;12.00;99.90;;;;;;5053662;28;20406;-77
2022/07/30 04:01:08;;;;;;;1.50;0.60;;;12.00;99.90;;;;;;5054996;28;20025;-78
2022/07/30 04:03:36;;;;;;;3.42;0.85;;;12.00;99.90;;;;;;5054509;28;20052;-75
2022/07/30 04:06:03;;;;;;;4.43;1.38;;;12.00;99.90;;;;;;5054968;28;20021;-77
2022/07/30 04:08:31;;;;;;;1.55;0.90;;;12.00;99.90;;;;;;5053042;28;20021;-77
2022/07/30 04:11:01;;;;;;;1.10;0.52;;;12.00;99.90;;;;;;5051866;28;20033;-76
2022/07/30 04:13:28;;;;;;;1.10;0.55;;;12.00;99.90;;;;;;5052274;28;20386;-77
2022/07/30 04:16:10;;;;;;;1.10;0.60;;;12.00;99.90;;;;;;5051772;28;20032;-77
2022/07/30 04:18:47;;;;;;;1.90;0.75;;;12.00;99.90;;;;;;5052281;28;20031;-75
2022/07/30 04:21:18;;;;;;;0.93;0.57;;;12.00;99.90;;;;;;5052102;28;20029;-77
2022/07/30 04:23:47;;;;;;;4.50;0.80;;;11.90;99.90;;;;;;5051371;28;20112;-77
2022/07/30 04:26:15;;;;;;;1.67;1.00;;;12.00;99.90;;;;;;5052902;28;20032;-75
2022/07/30 04:28:43;;;;;;;1.05;0.57;;;12.00;99.90;;;;;;5053126;28;20087;-77
2022/07/30 04:31:11;;;;;;;2.47;1.05;;;12.10;99.90;;;;;;5053027;28;20025;-76
2022/07/30 04:33:38;;;;;;;1.45;0.70;;;12.00;99.90;;;;;;5054449;28;20043;-74
2022/07/30 04:36:07;;;;;;;1.45;0.73;;;12.00;99.90;;;;;;5053899;28;20045;-76
2022/07/30 04:38:35;;;;;;;1.30;0.75;;;12.00;99.90;;;;;;5054119;28;20029;-74
2022/07/30 04:41:03;;;;;;;2.55;0.60;;;12.00;99.90;;;;;;5052944;28;20021;-76
2022/07/30 04:43:33;;;;;;;5.93;0.75;;;12.00;99.90;;;;;;5054125;28;20052;-76
2022/07/30 04:46:00;;;;;;;4.15;1.17;;;12.00;99.90;;;;;;5054166;28;20025;-74
2022/07/30 04:48:28;;;;;;;7.03;0.90;;;12.00;99.90;;;;;;5053883;28;20033;-77
2022/07/30 04:51:00;;;;;;;2.63;0.80;;;12.00;99.90;;;;;;5053811;28;20061;-73
2022/07/30 04:53:29;;;;;;;1.30;0.50;;;12.00;99.90;;;;;;5053831;28;20025;-73
2022/07/30 04:55:58;;;;;;;1.60;0.55;;;12.00;99.90;;;;;;5053673;28;20037;-76
2022/07/30 04:58:29;;;;;;;3.08;0.60;;;12.00;99.90;;;;;;5053985;28;20021;-77
2022/07/30 05:01:01;;;;;;;1.10;0.43;;;12.00;99.90;;;;;;5053889;28;20017;-77
2022/07/30 05:03:30;;;;;;;2.80;0.90;;;12.00;99.90;;;;;;5053616;28;20040;-77
2022/07/30 05:06:00;;;;;;;5.57;0.68;;;12.00;99.90;;;;;;5053785;28;20029;-77
2022/07/30 05:08:28;;;;;;;1.35;0.90;;;12.00;99.90;;;;;;5053725;28;20021;-77
2022/07/30 05:10:55;;;;;;;1.85;0.63;;;12.00;99.90;;;;;;5053414;28;20162;-77
2022/07/30 05:13:22;;;;;;;2.90;0.88;;;12.00;99.90;;;;;;5053518;28;20017;-77
2022/07/30 05:15:53;;;;;;;3.50;0.68;;;12.00;99.90;;;;;;5053338;28;20033;-77
2022/07/30 05:18:20;;;;;;;2.58;0.73;;;12.00;99.90;;;;;;5052077;28;20075;-76
2022/07/30 05:20:47;;;;;;;2.03;0.63;;;12.00;99.90;;;;;;5052682;28;20108;-77
2022/07/30 05:23:15;;;;;;;0.70;0.68;;;12.00;99.90;;;;;;5053378;28;20418;-77
2022/07/30 05:25:42;;;;;;;2.65;0.50;;;12.10;99.90;;;;;;5053352;28;20386;-77
2022/07/30 05:28:09;;;;;;;2.17;0.50;;;12.00;99.90;;;;;;5053385;28;20029;-77
2022/07/30 05:30:37;;;;;;;1.60;0.50;;;12.00;99.90;;;;;;5053329;28;20021;-78
2022/07/30 05:33:05;;;;;;;1.00;0.55;;;12.00;99.90;;;;;;5053579;28;20029;-77
2022/07/30 05:35:32;;;;;;;2.47;0.50;;;11.90;99.90;;;;;;5053266;28;20100;-73
2022/07/30 05:38:03;;;;;;;0.90;0.45;;;12.00;99.90;;;;;;5053384;28;20025;-76
2022/07/30 05:40:30;;;;;;;2.05;0.47;;;12.00;99.90;;;;;;5053111;28;20078;-76
2022/07/30 05:42:58;;;;;;;0.63;0.43;;;11.90;99.90;;;;;;5053151;28;20039;-78
2022/07/30 05:45:25;;;;;;;1.63;0.55;;;11.90;99.90;;;;;;5053191;28;20053;-77
2022/07/30 05:47:52;;;;;;;1.00;0.60;;;11.90;99.90;;;;;;5053397;28;20025;-77
2022/07/30 05:50:20;;;;;;;0.30;0.30;;;11.90;99.90;;;;;;5053251;28;20029;-77
2022/07/30 05:52:47;;;;;;;0.55;0.40;;;11.90;99.90;;;;;;5053189;28;20020;-77
2022/07/30 05:55:15;;;;;;;1.80;0.57;;;11.80;99.90;;;;;;5052860;28;20041;-77
2022/07/30 05:57:45;;;;;;;1.50;0.50;;;11.90;99.90;;;;;;5053231;28;20017;-76
2022/07/30 06:00:12;;;;;;;0.85;0.38;;;11.90;99.90;;;;;;5052901;28;20052;-77
2022/07/30 06:02:40;;;;;;;1.45;0.65;;;11.80;99.90;;;;;;5052802;28;20430;-78
2022/07/30 06:05:08;;;;;;;1.33;0.55;;;11.80;99.90;;;;;;5051635;28;20032;-78
2022/07/30 06:07:35;;;;;;;2.45;0.60;;;11.80;99.90;;;;;;5053430;28;20020;-78
2022/07/30 06:10:03;;;;;;;1.70;0.50;;;11.80;99.90;;;;;;5052833;28;20359;-78
2022/07/30 06:12:31;;;;;;;0.50;0.30;;;11.80;99.90;;;;;;5052670;28;20025;-78
2022/07/30 06:14:58;;;;;;;1.20;0.63;;;11.80;99.90;;;;;;5052872;28;20091;-77
2022/07/30 06:17:26;;;;;;;1.48;0.57;;;11.80;99.90;;;;;;5053154;28;20029;-77
2022/07/30 06:19:53;;;;;;;0.70;0.40;;;11.80;99.90;;;;;;5052936;28;20029;-78
2022/07/30 06:22:20;;;;;;;1.92;0.32;;;11.70;99.90;;;;;;5052916;28;20109;-78
2022/07/30 06:24:47;;;;;;;1.90;0.43;;;11.70;99.90;;;;;;5053061;28;20104;-78
2022/07/30 06:27:15;;;;;;;1.15;0.40;;;11.60;99.90;;;;;;5052979;28;20115;-78
2022/07/30 06:29:42;;;;;;;1.40;0.50;;;11.60;99.90;;;;;;5052861;28;20021;-74
2022/07/30 06:32:10;;;;;;;1.15;0.47;;;11.60;99.90;;;;;;5053272;28;20029;-76
2022/07/30 06:34:40;;;;;;;3.35;0.93;;;11.60;99.90;;;;;;5056437;28;20025;-74
2022/07/30 06:37:07;;;;;;;0.68;0.40;;;11.50;99.90;;;;;;5056494;28;20033;-74
2022/07/30 06:39:34;;;;;;;1.85;0.68;;;11.50;99.90;;;;;;5054965;28;20029;-74
2022/07/30 06:42:02;;;;;;;2.22;0.60;;;11.40;99.90;;;;;;5057023;28;20362;-73
2022/07/30 06:44:29;;;;;;;1.88;0.88;;;11.40;99.90;;;;;;5056384;28;20028;-78
2022/07/30 06:46:56;;;;;;;0.93;0.52;;;11.30;99.90;;;;;;5056478;28;20017;-73
2022/07/30 06:49:23;;;;;;;0.65;0.30;;;11.30;99.90;;;;;;5057081;28;20359;-74
2022/07/30 06:51:51;;;;;;;2.92;0.60;;;11.30;99.90;;;;;;5056224;28;20521;-78
2022/07/30 06:54:18;;;;;;;2.28;0.85;;;11.20;99.90;;;;;;5056032;28;20037;-74
2022/07/30 06:56:45;;;;;;;2.80;0.60;;;11.20;99.90;;;;;;5056157;28;20029;-75
2022/07/30 06:59:16;;;;;;;1.35;0.70;;;11.10;99.90;;;;;;5056537;28;20021;-75
2022/07/30 07:01:43;;;;;;;1.02;0.77;;;11.10;99.90;;;;;;5056104;28;20037;-77
2022/07/30 07:04:10;;;;;;;1.63;0.80;;;11.00;99.90;;;;;;5056135;28;20032;-78
2022/07/30 07:06:38;;;;;;;1.52;0.60;;;11.00;99.90;;;;;;5056041;28;20025;-76
2022/07/30 07:09:08;;;;;;;0.68;0.50;;;10.90;99.90;;;;;;5055915;28;20028;-75
2022/07/30 07:11:35;;;;;;;2.00;0.75;;;10.90;99.90;;;;;;5055925;28;20054;-74
2022/07/30 07:14:02;;;;;;;2.03;0.70;;;10.80;99.90;;;;;;5055774;28;20020;-75
2022/07/30 07:16:30;;;;;;;1.25;0.70;;;10.80;99.90;;;;;;5055806;28;20025;-78
2022/07/30 07:19:00;;;;;;;1.20;0.68;;;10.70;99.90;;;;;;5055792;28;20021;-74
2022/07/30 07:21:27;;;;;;;2.45;1.00;;;10.60;99.90;;;;;;5055865;28;20021;-77
2022/07/30 07:23:59;;;;;;;1.20;0.70;;;10.60;99.90;;;;;;5055718;28;20470;-78
2022/07/30 07:26:26;;;;;;;2.65;0.90;;;10.60;99.90;;;;;;5055486;28;20440;-73
2022/07/30 07:28:54;;;;;;;1.98;0.90;;;10.50;99.90;;;;;;5055376;28;20017;-77
2022/07/30 07:31:21;;;;;;;1.42;1.00;;;10.40;99.90;;;;;;5055498;28;20052;-77
2022/07/30 07:33:50;;;;;;;2.60;1.00;;;10.40;99.90;;;;;;5055456;28;20021;-78
2022/07/30 07:36:17;;;;;;;6.30;1.10;;;10.30;99.90;;;;;;5055031;28;20037;-77
2022/07/30 07:38:45;;;;;;;1.75;0.75;;;10.20;99.90;;;;;;5054347;28;20090;-77
2022/07/30 07:41:12;;;;;;;3.63;0.93;;;10.20;99.90;;;;;;5055388;28;20033;-73
2022/07/30 07:43:40;;;;;;;1.90;1.40;;;10.20;99.90;;;;;;5054632;28;20466;-78
2022/07/30 07:46:07;;;;;;;1.75;1.13;;;10.10;99.90;;;;;;5054875;28;20028;-74
2022/07/30 07:48:35;;;;;;;3.42;1.42;;;10.10;99.90;;;;;;5055308;28;20539;-73
2022/07/30 07:51:02;;;;;;;2.97;1.15;;;10.10;99.90;;;;;;5055219;28;20057;-73
2022/07/30 07:53:30;;;;;;;2.20;1.20;;;10.00;99.90;;;;;;5055035;28;20043;-78
2022/07/30 07:55:58;;;;;;;2.83;1.23;;;10.00;99.90;;;;;;5054854;28;20029;-73
2022/07/30 07:58:26;;;;;;;4.07;1.30;;;9.90;99.90;;;;;;5055025;28;20474;-74
2022/07/30 08:00:54;;;;;;;3.55;1.00;;;9.90;99.90;;;;;;5054766;28;20470;-73
2022/07/30 08:03:21;;;;;;;3.90;1.35;;;9.90;99.90;;;;;;5054706;28;20490;-73
2022/07/30 08:05:48;;;;;;;1.83;1.10;;;9.80;99.90;;;;;;5055030;28;20159;-73
2022/07/30 08:08:18;;;;;;;2.85;1.40;;;9.80;99.90;;;;;;5054943;28;20020;-73
2022/07/30 08:10:45;;;;;;;1.63;1.08;;;9.80;99.90;;;;;;5054715;28;20064;-73
2022/07/30 08:13:14;;;;;;;3.42;1.50;;;9.70;99.90;;;;;;5054788;28;20025;-73
2022/07/30 08:15:41;;;;;;;4.60;1.58;;;9.60;99.90;;;;;;5054463;28;20036;-73
2022/07/30 08:18:10;;;;;;;4.55;2.45;;;9.60;99.90;;;;;;5054686;28;20381;-73
2022/07/30 08:20:38;;;;;;;5.70;1.65;;;9.60;99.90;;;;;;5054605;28;20385;-73
2022/07/30 08:23:06;;;;;;;3.85;1.67;;;9.50;99.90;;;;;;5054460;28;20029;-73
2022/07/30 08:25:34;;;;;;;2.50;1.40;;;9.50;99.90;;;;;;5054604;28;20044;-73
2022/07/30 08:28:02;;;;;;;4.30;1.80;;;9.50;99.90;;;;;;5054377;28;20470;-73
2022/07/30 08:30:30;;;;;;;4.85;1.38;;;9.50;99.90;;;;;;5054428;28;20059;-73
2022/07/30 08:32:57;;;;;;;2.13;1.52;;;9.50;99.90;;;;;;5054288;28;20053;-72
2022/07/30 08:35:25;;;;;;;2.88;1.27;;;9.40;99.90;;;;;;5054019;28;20041;-73
2022/07/30 08:37:52;;;;;;;3.65;1.05;;;9.40;99.90;;;;;;5054187;28;20025;-73
2022/07/30 08:40:20;;;;;;;4.95;1.20;;;9.40;99.90;;;;;;5054429;28;20025;-74
2022/07/30 08:42:47;;;;;;;2.20;1.38;;;9.40;99.90;;;;;;5054094;28;20025;-73
2022/07/30 08:45:16;;;;;;;3.35;1.50;;;9.30;99.90;;;;;;5054316;28;20039;-73
2022/07/30 08:47:46;;;;;;;3.17;1.73;;;9.30;99.90;;;;;;5053903;28;20378;-73
2022/07/30 08:50:14;;;;;;;6.10;1.73;;;9.30;99.90;;;;;;5053937;28;20489;-73
2022/07/30 08:52:42;;;;;;;4.78;2.13;;;9.20;99.90;;;;;;5054014;28;20470;-73
2022/07/30 08:55:10;;;;;;;2.33;1.73;;;9.20;99.90;;;;;;5053573;28;20033;-73
2022/07/30 08:57:37;;;;;;;5.38;2.47;;;9.20;99.90;;;;;;5053843;28;20021;-73
2022/07/30 09:00:07;;;;;;;3.33;2.17;;;9.10;99.90;;;;;;5053783;28;20462;-73
2022/07/30 09:02:34;;;;;;;5.18;1.90;;;9.10;99.90;;;;;;5053558;28;20045;-74
2022/07/30 09:05:03;;;;;;;5.95;2.28;;;9.10;99.90;;;;;;5052462;28;20031;-73
2022/07/30 09:07:33;;;;;;;3.92;1.83;;;9.10;99.90;;;;;;5053682;28;20600;-73
2022/07/30 09:10:01;;;;;;;6.72;2.60;;;9.00;99.90;;;;;;5053892;28;20131;-73
2022/07/30 09:12:43;;;;;;;4.93;3.05;;;9.00;99.90;;;;;;5053744;28;20056;-73
2022/07/30 09:15:12;;;;;;;8.57;3.35;;;9.00;99.90;;;;;;5053313;28;20087;-72
2022/07/30 09:17:54;;;;;;;7.13;3.35;;;8.90;99.90;;;;;;5053667;28;20175;-73
2022/07/30 09:20:39;;;;;;;7.47;3.00;;;8.90;99.90;;;;;;5053355;28;20367;-73
2022/07/30 09:23:07;;;;;;;8.93;3.28;;;8.90;99.90;;;;;;5053601;28;20032;-73
2022/07/30 09:25:36;;;;;;;6.00;2.70;;;8.90;99.90;;;;;;5053613;28;20033;-72
2022/07/30 09:28:08;;;;;;;7.45;2.75;;;8.90;99.90;;;;;;5053295;28;20029;-73
2022/07/30 09:30:47;;;;;;;6.65;3.20;;;8.90;99.90;;;;;;5053387;28;20025;-73
2022/07/30 09:33:14;;;;;;;6.47;3.03;;;8.80;99.90;;;;;;5053503;28;20029;-73
2022/07/30 09:35:55;;;;;;;5.30;3.20;;;8.80;99.90;;;;;;5053315;28;20060;-73
2022/07/30 09:38:22;;;;;;;7.03;2.85;;;8.80;99.90;;;;;;5053449;28;20017;-73
2022/07/30 09:40:55;;;;;;;9.07;2.88;;;8.80;99.90;;;;;;5053331;28;20092;-73
2022/07/30 09:43:22;;;;;;;6.88;3.10;;;8.80;99.90;;;;;;5053460;28;20013;-73
2022/07/30 09:45:57;;;;;;;5.25;3.03;;;8.80;99.90;;;;;;5053443;28;20417;-73
2022/07/30 09:48:27;;;;;;;10.65;2.70;;;8.70;99.90;;;;;;5053861;28;20023;-73
2022/07/30 09:50:55;;;;;;;6.78;2.83;;;8.70;99.90;;;;;;5053206;28;20025;-73
2022/07/30 09:53:23;;;;;;;8.50;2.60;;;8.70;99.90;;;;;;5051976;28;20351;-73
2022/07/30 09:55:50;;;;;;;10.70;3.10;;;8.70;99.90;;;;;;5053113;28;20033;-73
2022/07/30 09:58:18;;;;;;;8.43;2.67;;;8.70;99.90;;;;;;5053107;28;20029;-73
2022/07/30 10:00:45;;;;;;;5.88;2.42;;;8.70;99.90;;;;;;5052884;28;20103;-73
2022/07/30 10:03:24;;;;;;;6.78;3.42;;;8.70;99.90;;;;;;5053044;28;20075;-73
2022/07/30 10:05:56;;;;;;;7.30;2.65;;;8.70;99.90;;;;;;5053508;28;20021;-73
2022/07/30 10:08:46;;;;;;;6.88;2.50;;;8.60;99.90;;;;;;5056190;28;20109;-78
2022/07/30 10:11:24;;;;;;;5.18;1.83;;;8.60;99.90;;;;;;5056855;28;20025;-73
2022/07/30 10:13:55;;;;;;;8.55;2.75;;;8.60;99.90;;;;;;5057185;28;20036;-73
2022/07/30 10:16:26;;;;;;;5.10;2.40;;;8.60;99.90;;;;;;5056901;28;20033;-73
2022/07/30 10:18:56;;;;;;;8.93;2.60;;;8.60;99.90;;;;;;5057078;28;20497;-73
2022/07/30 10:21:24;;;;;;;6.97;2.83;;;8.60;99.90;;;;;;5056704;28;20035;-73
2022/07/30 10:23:53;;;;;;;6.68;2.30;;;8.60;99.90;;;;;;5056768;28;20544;-77
2022/07/30 10:26:21;;;;;;;5.07;2.40;;;8.60;99.90;;;;;;5056853;28;20021;-73
2022/07/30 10:28:50;;;;;;;8.80;2.67;;;8.50;99.90;;;;;;5056431;28;20382;-73
2022/07/30 10:31:17;;;;;;;5.80;2.60;;;8.50;99.90;;;;;;5056677;28;20462;-73
2022/07/30 10:33:45;;;;;;;4.65;2.38;;;8.50;99.90;;;;;;5057275;28;20031;-78
2022/07/30 10:36:15;;;;;;;7.32;2.20;;;8.50;99.90;;;;;;5056201;28;20033;-72
2022/07/30 10:38:44;;;;;;;9.18;2.65;;;8.50;99.90;;;;;;5056485;28;20036;-73
2022/07/30 10:41:47;;;;;;;3.92;1.88;;;8.40;99.90;;;;;;5056441;28;20025;-73
2022/07/30 10:44:43;;;;;;;5.90;2.95;;;8.40;99.90;;;;;;5056333;28;20497;-73
2022/07/30 10:47:17;;;;;;;6.40;2.45;;;8.40;99.90;;;;;;5056797;28;20064;-73
2022/07/30 10:50:08;;;;;;;6.25;2.67;;;8.40;99.90;;;;;;5056398;28;20025;-77
2022/07/30 10:52:53;;;;;;;3.78;2.17;;;8.30;99.90;;;;;;5056174;28;20029;-73
2022/07/30 10:55:26;;;;;;;8.10;2.40;;;8.30;99.90;;;;;;5056043;28;20425;-73
2022/07/30 10:58:09;;;;;;;6.63;2.50;;;8.30;99.90;;;;;;5056281;28;20036;-73
2022/07/30 11:00:52;;;;;;;8.30;2.40;;;8.30;99.90;;;;;;5056002;28;20021;-73
2022/07/30 11:03:22;;;;;;;6.47;3.08;;;8.20;99.90;;;;;;5055706;28;20064;-77
2022/07/30 11:06:17;;;;;;;7.15;2.75;;;8.20;99.90;;;;;;5055939;28;20029;-73
2022/07/30 11:08:47;;;;;;;6.85;2.63;;;8.20;99.90;;;;;;5056495;28;20481;-73
2022/07/30 11:11:24;;;;;;;9.20;2.95;;;8.20;99.90;;;;;;5055806;28;20044;-73
2022/07/30 11:13:57;;;;;;;5.13;2.10;;;8.20;99.90;;;;;;5055916;28;20040;-76
2022/07/30 11:16:31;;;;;;;6.63;2.60;;;8.10;99.90;;;;;;5055753;28;20039;-73
2022/07/30 11:19:33;;;;;;;8.30;2.80;;;8.10;99.90;;;;;;5054812;28;20047;-77
2022/07/30 11:22:23;;;;;;;5.30;2.55;;;8.10;99.90;;;;;;5055300;28;20036;-78
2022/07/30 11:24:51;;;;;;;6.68;2.75;;;8.10;99.90;;;;;;5055657;28;20028;-73
2022/07/30 11:27:36;;;;;;;5.63;2.65;;;8.10;99.90;;;;;;5055672;28;20458;-75
2022/07/30 11:30:29;;;;;;;12.77;3.05;;;8.00;99.90;;;;;;5055756;28;20532;-73
2022/07/30 11:33:03;;;;;;;7.22;3.15;;;8.00;99.90;;;;;;5054689;28;20052;-73
2022/07/30 11:35:33;;;;;;;8.32;2.63;;;8.00;99.90;;;;;;5056362;28;20040;-73
2022/07/30 11:38:14;;;;;;;10.20;3.80;;;7.90;99.90;;;;;;5054451;28;20033;-77
2022/07/30 11:40:50;;;;;;;8.02;2.80;;;7.90;99.90;;;;;;5036590;28;20029;-73
2022/07/30 11:43:32;;;;;;;10.48;3.45;;;7.90;99.90;;;;;;5037591;28;20092;-72
2022/07/30 11:46:16;;;;;;;8.88;3.15;;;7.90;99.90;;;;;;5037913;28;20406;-73
2022/07/30 11:48:58;;;;;;;10.05;3.63;;;7.90;99.90;;;;;;5032312;28;20053;-72
2022/07/30 11:51:26;;;;;;;6.70;3.60;;;7.90;99.90;;;;;;5036293;28;20025;-73
2022/07/30 11:54:05;;;;;;;9.25;3.55;;;7.80;99.90;;;;;;5034507;28;20442;-77
2022/07/30 11:56:33;;;;;;;9.13;3.63;;;7.70;99.90;;;;;;5034833;28;20029;-77
2022/07/30 11:59:04;;;;;;;7.55;3.75;;;7.80;99.90;;;;;;5043187;28;20495;-76
2022/07/30 12:01:33;;;;;;;10.68;3.10;;;7.70;99.90;;;;;;5040577;28;20096;-77
2022/07/30 12:04:12;;;;;;;7.15;3.70;;;7.70;99.90;;;;;;5037996;28;20458;-76
2022/07/30 12:06:47;;;;;;;10.15;4.50;;;7.70;99.90;;;;;;5035430;28;20026;-77
2022/07/30 12:09:27;;;;;;;8.27;3.55;;;7.60;99.90;;;;;;5036655;28;20031;-74
2022/07/30 12:11:56;;;;;;;7.45;3.63;;;7.60;99.90;;;;;;5034386;28;20026;-78
2022/07/30 12:14:23;;;;;;;8.90;4.05;;;7.50;99.90;;;;;;5034318;28;20100;-73
2022/07/30 12:16:53;;;;;;;9.35;4.00;;;7.50;99.90;;;;;;5038692;28;20025;-73
2022/07/30 12:19:20;;;;;;;7.50;3.72;;;7.50;99.90;;;;;;5052542;28;20553;-74
2022/07/30 12:21:48;;;;;;;6.15;3.47;;;7.40;99.90;;;;;;5052323;28;20025;-72
2022/07/30 12:24:15;;;;;;;5.38;3.33;;;7.40;99.90;;;;;;5053463;28;20029;-74
2022/07/30 12:26:43;;;;;;;7.95;4.05;;;7.40;99.90;;;;;;5053606;28;20017;-73
2022/07/30 12:29:12;;;;;;;7.05;3.42;;;7.40;99.90;;;;;;5052688;28;20413;-77
2022/07/30 12:31:40;;;;;;;8.30;3.88;;;7.40;99.90;;;;;;5053473;28;20550;-72
2022/07/30 12:34:24;;;;;;;6.57;3.65;;;7.40;99.90;;;;;;5053710;28;20096;-73
2022/07/30 12:36:52;;;;;;;12.38;3.47;;;7.30;99.90;;;;;;5053659;28;20024;-75
2022/07/30 12:39:22;;;;;;;9.88;3.95;;;7.30;99.90;;;;;;5053612;28;20017;-76
2022/07/30 12:41:54;;;;;;;7.00;4.20;;;7.30;99.90;;;;;;5053629;28;20017;-72
2022/07/30 12:44:43;;;;;;;8.45;3.08;;;7.40;99.90;;;;;;5053691;28;20041;-73
2022/07/30 12:47:25;;;;;;;8.57;3.65;;;7.30;99.90;;;;;;5053650;28;20047;-72
2022/07/30 12:49:54;;;;;;;5.50;2.75;;;7.30;99.90;;;;;;5053429;28;20021;-73
2022/07/30 12:52:33;;;;;;;9.60;3.67;;;7.30;99.90;;;;;;5053568;28;20059;-72
2022/07/30 12:55:09;;;;;;;7.72;2.80;;;7.30;99.90;;;;;;5051954;28;20028;-72
2022/07/30 12:58:05;;;;;;;6.60;2.40;;;7.30;99.90;;;;;;5051645;28;20021;-73
2022/07/30 13:00:53;;;;;;;9.43;2.67;;;7.30;99.90;;;;;;5050893;28;20040;-77
2022/07/30 13:03:22;;;;;;;7.40;2.67;;;7.30;99.90;;;;;;5052075;28;20436;-72
2022/07/30 13:05:52;;;;;;;6.60;2.80;;;7.30;99.90;;;;;;5050686;28;20100;-72
2022/07/30 13:08:20;;;;;;;7.70;2.75;;;7.30;99.90;;;;;;5053178;28;20486;-73
2022/07/30 13:10:58;;;;;;;7.32;3.05;;;7.30;99.90;;;;;;5053202;28;20489;-72
2022/07/30 13:13:31;;;;;;;4.63;2.22;;;7.20;99.90;;;;;;5053133;28;20028;-72